sensor_id;sensor_type;location;lat;lon;timestamp;P1;durP1;ratioP1;P2;durP2;ratioP2
27939;SDS011;15275;51.716;14.324;2023-04-25T00:01:47;4.22;;;2.50;;
27939;SDS011;15275;51.716;14.324;2023-04-25T00:04:13;5.05;;;2.30;;
27939;SDS011;15275;51.716;14.324;2023-04-25T00:06:39;3.35;;;2.22;;
27939;SDS011;15275;51.716;14.324;2023-04-25T00:09:05;3.20;;;2.53;;
27939;SDS011;15275;51.716;14.324;2023-04-25T00:11:35;3.95;;;2.88;;
27939;SDS011;15275;51.716;14.324;2023-04-25T00:14:02;4.07;;;2.30;;
27939;SDS011;15275;51.716;14.324;2023-04-25T00:16:29;5.10;;;2.60;;
27939;SDS011;15275;51.716;14.324;2023-04-25T00:18:58;2.60;;;2.28;;
27939;SDS011;15275;51.716;14.324;2023-04-25T00:23:53;4.50;;;3.08;;
27939;SDS011;15275;51.716;14.324;2023-04-25T00:26:19;4.78;;;2.83;;
27939;SDS011;15275;51.716;14.324;2023-04-25T00:28:48;4.78;;;2.70;;
27939;SDS011;15275;51.716;14.324;2023-04-25T00:31:14;3.53;;;2.70;;
27939;SDS011;15275;51.716;14.324;2023-04-25T00:33:40;4.07;;;2.42;;
27939;SDS011;15275;51.716;14.324;2023-04-25T00:36:06;3.30;;;2.38;;
27939;SDS011;15275;51.716;14.324;2023-04-25T00:38:32;3.75;;;2.88;;
27939;SDS011;15275;51.716;14.324;2023-04-25T00:40:58;5.25;;;3.10;;
27939;SDS011;15275;51.716;14.324;2023-04-25T00:43:25;3.38;;;2.75;;
27939;SDS011;15275;51.716;14.324;2023-04-25T00:45:52;3.72;;;2.80;;
27939;SDS011;15275;51.716;14.324;2023-04-25T00:48:18;7.50;;;3.10;;
27939;SDS011;15275;51.716;14.324;2023-04-25T00:50:49;3.85;;;2.65;;
27939;SDS011;15275;51.716;14.324;2023-04-25T00:53:23;4.72;;;2.88;;
27939;SDS011;15275;51.716;14.324;2023-04-25T00:55:51;6.82;;;3.08;;
27939;SDS011;15275;51.716;14.324;2023-04-25T00:58:18;3.88;;;3.00;;
27939;SDS011;15275;51.716;14.324;2023-04-25T01:00:46;4.45;;;2.85;;
27939;SDS011;15275;51.716;14.324;2023-04-25T01:03:15;3.67;;;2.75;;
27939;SDS011;15275;51.716;14.324;2023-04-25T01:05:44;3.53;;;2.63;;
27939;SDS011;15275;51.716;14.324;2023-04-25T01:08:12;4.40;;;2.80;;
27939;SDS011;15275;51.716;14.324;2023-04-25T01:10:38;3.55;;;2.38;;
27939;SDS011;15275;51.716;14.324;2023-04-25T01:13:05;4.35;;;3.05;;
27939;SDS011;15275;51.716;14.324;2023-04-25T01:15:31;7.03;;;4.00;;
27939;SDS011;15275;51.716;14.324;2023-04-25T01:17:57;3.55;;;2.67;;
27939;SDS011;15275;51.716;14.324;2023-04-25T01:20:25;3.92;;;3.15;;
27939;SDS011;15275;51.716;14.324;2023-04-25T01:22:53;3.88;;;3.00;;
27939;SDS011;15275;51.716;14.324;2023-04-25T01:25:20;3.72;;;2.70;;
27939;SDS011;15275;51.716;14.324;2023-04-25T01:27:47;3.78;;;2.95;;
27939;SDS011;15275;51.716;14.324;2023-04-25T01:30:13;5.65;;;3.05;;
27939;SDS011;15275;51.716;14.324;2023-04-25T01:32:40;6.57;;;2.97;;
27939;SDS011;15275;51.716;14.324;2023-04-25T01:35:08;3.20;;;2.65;;
27939;SDS011;15275;51.716;14.324;2023-04-25T01:37:39;5.32;;;3.13;;
27939;SDS011;15275;51.716;14.324;2023-04-25T01:40:07;5.13;;;3.50;;
27939;SDS011;15275;51.716;14.324;2023-04-25T01:42:36;3.92;;;2.88;;
27939;SDS011;15275;51.716;14.324;2023-04-25T01:45:05;3.65;;;2.83;;
27939;SDS011;15275;51.716;14.324;2023-04-25T01:47:32;4.05;;;2.72;;
27939;SDS011;15275;51.716;14.324;2023-04-25T01:50:00;5.70;;;3.30;;
27939;SDS011;15275;51.716;14.324;2023-04-25T01:52:27;3.85;;;2.90;;
27939;SDS011;15275;51.716;14.324;2023-04-25T01:54:53;4.88;;;2.88;;
27939;SDS011;15275;51.716;14.324;2023-04-25T01:57:19;4.65;;;3.50;;
27939;SDS011;15275;51.716;14.324;2023-04-25T01:59:45;6.88;;;3.15;;
27939;SDS011;15275;51.716;14.324;2023-04-25T02:02:12;4.13;;;3.13;;
27939;SDS011;15275;51.716;14.324;2023-04-25T02:04:37;12.38;;;3.15;;
27939;SDS011;15275;51.716;14.324;2023-04-25T02:07:03;3.92;;;2.63;;
27939;SDS011;15275;51.716;14.324;2023-04-25T02:09:31;3.72;;;2.85;;
27939;SDS011;15275;51.716;14.324;2023-04-25T02:11:57;5.45;;;2.97;;
27939;SDS011;15275;51.716;14.324;2023-04-25T02:14:23;6.18;;;3.42;;
27939;SDS011;15275;51.716;14.324;2023-04-25T02:16:49;4.93;;;2.95;;
27939;SDS011;15275;51.716;14.324;2023-04-25T02:19:16;3.60;;;2.72;;
27939;SDS011;15275;51.716;14.324;2023-04-25T02:21:42;4.47;;;2.83;;
27939;SDS011;15275;51.716;14.324;2023-04-25T02:24:08;5.45;;;2.72;;
27939;SDS011;15275;51.716;14.324;2023-04-25T02:26:34;4.22;;;3.38;;
27939;SDS011;15275;51.716;14.324;2023-04-25T02:28:59;3.80;;;2.83;;
27939;SDS011;15275;51.716;14.324;2023-04-25T02:31:26;4.57;;;3.30;;
27939;SDS011;15275;51.716;14.324;2023-04-25T02:33:52;3.58;;;2.67;;
27939;SDS011;15275;51.716;14.324;2023-04-25T02:36:17;4.18;;;2.70;;
27939;SDS011;15275;51.716;14.324;2023-04-25T02:38:43;5.18;;;3.00;;
27939;SDS011;15275;51.716;14.324;2023-04-25T02:41:09;3.95;;;2.90;;
27939;SDS011;15275;51.716;14.324;2023-04-25T02:43:35;3.53;;;2.97;;
27939;SDS011;15275;51.716;14.324;2023-04-25T02:46:01;4.72;;;2.95;;
27939;SDS011;15275;51.716;14.324;2023-04-25T02:48:27;4.75;;;2.78;;
27939;SDS011;15275;51.716;14.324;2023-04-25T02:50:54;4.47;;;3.00;;
27939;SDS011;15275;51.716;14.324;2023-04-25T02:53:20;3.53;;;2.72;;
27939;SDS011;15275;51.716;14.324;2023-04-25T02:55:46;3.70;;;2.33;;
27939;SDS011;15275;51.716;14.324;2023-04-25T02:58:11;5.40;;;3.17;;
27939;SDS011;15275;51.716;14.324;2023-04-25T03:00:37;4.20;;;2.78;;
27939;SDS011;15275;51.716;14.324;2023-04-25T03:03:03;4.53;;;2.70;;
27939;SDS011;15275;51.716;14.324;2023-04-25T03:05:29;7.85;;;3.40;;
27939;SDS011;15275;51.716;14.324;2023-04-25T03:07:55;5.05;;;2.88;;
27939;SDS011;15275;51.716;14.324;2023-04-25T03:10:21;5.93;;;3.50;;
27939;SDS011;15275;51.716;14.324;2023-04-25T03:12:47;3.78;;;2.75;;
27939;SDS011;15275;51.716;14.324;2023-04-25T03:15:13;5.15;;;2.60;;
27939;SDS011;15275;51.716;14.324;2023-04-25T03:17:38;4.15;;;2.67;;
27939;SDS011;15275;51.716;14.324;2023-04-25T03:20:05;4.20;;;2.65;;
27939;SDS011;15275;51.716;14.324;2023-04-25T03:22:33;3.10;;;2.50;;
27939;SDS011;15275;51.716;14.324;2023-04-25T03:24:59;4.47;;;3.00;;
27939;SDS011;15275;51.716;14.324;2023-04-25T03:27:25;6.80;;;3.22;;
27939;SDS011;15275;51.716;14.324;2023-04-25T03:29:51;3.20;;;2.50;;
27939;SDS011;15275;51.716;14.324;2023-04-25T03:32:16;4.35;;;2.83;;
27939;SDS011;15275;51.716;14.324;2023-04-25T03:34:42;4.35;;;2.80;;
27939;SDS011;15275;51.716;14.324;2023-04-25T03:37:08;5.03;;;2.67;;
27939;SDS011;15275;51.716;14.324;2023-04-25T03:39:34;7.90;;;2.65;;
27939;SDS011;15275;51.716;14.324;2023-04-25T03:42:00;3.97;;;2.58;;
27939;SDS011;15275;51.716;14.324;2023-04-25T03:44:27;4.35;;;2.88;;
27939;SDS011;15275;51.716;14.324;2023-04-25T03:46:53;4.82;;;3.00;;
27939;SDS011;15275;51.716;14.324;2023-04-25T03:49:19;3.42;;;2.33;;
27939;SDS011;15275;51.716;14.324;2023-04-25T03:51:45;3.50;;;2.67;;
27939;SDS011;15275;51.716;14.324;2023-04-25T03:54:11;4.43;;;3.17;;
27939;SDS011;15275;51.716;14.324;2023-04-25T03:56:37;5.40;;;3.25;;
27939;SDS011;15275;51.716;14.324;2023-04-25T03:59:03;4.70;;;3.30;;
27939;SDS011;15275;51.716;14.324;2023-04-25T04:01:29;5.07;;;3.60;;
27939;SDS011;15275;51.716;14.324;2023-04-25T04:03:55;5.65;;;2.92;;
27939;SDS011;15275;51.716;14.324;2023-04-25T04:06:20;4.78;;;2.60;;
27939;SDS011;15275;51.716;14.324;2023-04-25T04:08:46;7.47;;;2.70;;
27939;SDS011;15275;51.716;14.324;2023-04-25T04:11:12;4.97;;;3.20;;
27939;SDS011;15275;51.716;14.324;2023-04-25T04:13:38;3.78;;;2.42;;
27939;SDS011;15275;51.716;14.324;2023-04-25T04:16:04;3.13;;;2.42;;
27939;SDS011;15275;51.716;14.324;2023-04-25T04:18:30;5.05;;;2.78;;
27939;SDS011;15275;51.716;14.324;2023-04-25T04:20:58;3.00;;;2.17;;
27939;SDS011;15275;51.716;14.324;2023-04-25T04:23:24;3.90;;;2.97;;
27939;SDS011;15275;51.716;14.324;2023-04-25T04:25:52;5.47;;;3.17;;
27939;SDS011;15275;51.716;14.324;2023-04-25T04:28:19;4.30;;;2.70;;
27939;SDS011;15275;51.716;14.324;2023-04-25T04:30:45;4.07;;;3.15;;
27939;SDS011;15275;51.716;14.324;2023-04-25T04:33:12;5.00;;;3.30;;
27939;SDS011;15275;51.716;14.324;2023-04-25T04:35:40;4.20;;;3.10;;
27939;SDS011;15275;51.716;14.324;2023-04-25T04:38:06;7.10;;;3.15;;
27939;SDS011;15275;51.716;14.324;2023-04-25T04:40:32;3.30;;;2.65;;
27939;SDS011;15275;51.716;14.324;2023-04-25T04:42:58;3.50;;;2.72;;
27939;SDS011;15275;51.716;14.324;2023-04-25T04:45:24;4.70;;;3.40;;
27939;SDS011;15275;51.716;14.324;2023-04-25T04:47:50;6.35;;;2.95;;
27939;SDS011;15275;51.716;14.324;2023-04-25T04:50:16;4.65;;;2.88;;
27939;SDS011;15275;51.716;14.324;2023-04-25T04:52:43;4.90;;;3.40;;
27939;SDS011;15275;51.716;14.324;2023-04-25T04:55:09;4.93;;;2.92;;
27939;SDS011;15275;51.716;14.324;2023-04-25T04:57:35;4.13;;;2.97;;
27939;SDS011;15275;51.716;14.324;2023-04-25T05:00:01;4.03;;;3.10;;
27939;SDS011;15275;51.716;14.324;2023-04-25T05:02:30;6.32;;;3.40;;
27939;SDS011;15275;51.716;14.324;2023-04-25T05:04:56;3.95;;;2.92;;
27939;SDS011;15275;51.716;14.324;2023-04-25T05:07:22;6.15;;;3.38;;
27939;SDS011;15275;51.716;14.324;2023-04-25T05:09:48;8.82;;;3.75;;
27939;SDS011;15275;51.716;14.324;2023-04-25T05:12:13;5.57;;;3.42;;
27939;SDS011;15275;51.716;14.324;2023-04-25T05:14:39;8.55;;;3.80;;
27939;SDS011;15275;51.716;14.324;2023-04-25T05:17:05;8.05;;;4.07;;
27939;SDS011;15275;51.716;14.324;2023-04-25T05:19:33;5.55;;;3.72;;
27939;SDS011;15275;51.716;14.324;2023-04-25T05:21:59;4.72;;;3.67;;
27939;SDS011;15275;51.716;14.324;2023-04-25T05:24:25;5.68;;;3.65;;
27939;SDS011;15275;51.716;14.324;2023-04-25T05:26:51;5.65;;;3.67;;
27939;SDS011;15275;51.716;14.324;2023-04-25T05:29:17;7.05;;;3.90;;
27939;SDS011;15275;51.716;14.324;2023-04-25T05:31:42;8.32;;;4.00;;
27939;SDS011;15275;51.716;14.324;2023-04-25T05:34:09;5.40;;;3.58;;
27939;SDS011;15275;51.716;14.324;2023-04-25T05:36:35;5.40;;;3.63;;
27939;SDS011;15275;51.716;14.324;2023-04-25T05:39:01;4.75;;;3.05;;
27939;SDS011;15275;51.716;14.324;2023-04-25T05:41:29;5.45;;;3.95;;
27939;SDS011;15275;51.716;14.324;2023-04-25T05:43:55;9.95;;;3.50;;
27939;SDS011;15275;51.716;14.324;2023-04-25T05:46:20;7.45;;;3.38;;
27939;SDS011;15275;51.716;14.324;2023-04-25T05:48:46;8.48;;;3.15;;
27939;SDS011;15275;51.716;14.324;2023-04-25T05:51:12;3.90;;;2.90;;
27939;SDS011;15275;51.716;14.324;2023-04-25T05:53:38;4.30;;;2.78;;
27939;SDS011;15275;51.716;14.324;2023-04-25T05:56:04;4.68;;;2.90;;
27939;SDS011;15275;51.716;14.324;2023-04-25T05:58:30;9.00;;;3.47;;
27939;SDS011;15275;51.716;14.324;2023-04-25T06:00:56;6.85;;;3.00;;
27939;SDS011;15275;51.716;14.324;2023-04-25T06:03:22;8.45;;;3.05;;
27939;SDS011;15275;51.716;14.324;2023-04-25T06:05:47;6.90;;;3.47;;
27939;SDS011;15275;51.716;14.324;2023-04-25T06:08:13;6.90;;;2.92;;
27939;SDS011;15275;51.716;14.324;2023-04-25T06:10:39;4.95;;;2.55;;
27939;SDS011;15275;51.716;14.324;2023-04-25T06:13:05;6.32;;;2.85;;
27939;SDS011;15275;51.716;14.324;2023-04-25T06:15:31;3.47;;;2.33;;
27939;SDS011;15275;51.716;14.324;2023-04-25T06:17:57;4.72;;;2.95;;
27939;SDS011;15275;51.716;14.324;2023-04-25T06:20:23;6.78;;;3.25;;
27939;SDS011;15275;51.716;14.324;2023-04-25T06:22:50;7.50;;;2.92;;
27939;SDS011;15275;51.716;14.324;2023-04-25T06:25:17;5.78;;;2.78;;
27939;SDS011;15275;51.716;14.324;2023-04-25T06:27:43;4.05;;;2.40;;
27939;SDS011;15275;51.716;14.324;2023-04-25T06:30:09;4.97;;;2.42;;
27939;SDS011;15275;51.716;14.324;2023-04-25T06:32:37;8.18;;;2.60;;
27939;SDS011;15275;51.716;14.324;2023-04-25T06:35:03;8.73;;;2.70;;
27939;SDS011;15275;51.716;14.324;2023-04-25T06:37:30;6.65;;;2.83;;
27939;SDS011;15275;51.716;14.324;2023-04-25T06:39:56;9.45;;;3.00;;
27939;SDS011;15275;51.716;14.324;2023-04-25T06:42:22;7.22;;;3.00;;
27939;SDS011;15275;51.716;14.324;2023-04-25T06:44:48;4.25;;;2.92;;
27939;SDS011;15275;51.716;14.324;2023-04-25T06:47:14;6.97;;;3.42;;
27939;SDS011;15275;51.716;14.324;2023-04-25T06:49:40;6.05;;;2.90;;
27939;SDS011;15275;51.716;14.324;2023-04-25T06:52:06;3.55;;;2.13;;
27939;SDS011;15275;51.716;14.324;2023-04-25T06:54:33;3.67;;;2.38;;
27939;SDS011;15275;51.716;14.324;2023-04-25T06:56:59;5.13;;;2.83;;
27939;SDS011;15275;51.716;14.324;2023-04-25T06:59:26;4.90;;;2.70;;
27939;SDS011;15275;51.716;14.324;2023-04-25T07:01:52;7.00;;;2.60;;
27939;SDS011;15275;51.716;14.324;2023-04-25T07:04:17;4.53;;;2.38;;
27939;SDS011;15275;51.716;14.324;2023-04-25T07:06:44;6.90;;;2.92;;
27939;SDS011;15275;51.716;14.324;2023-04-25T07:09:11;5.47;;;2.92;;
27939;SDS011;15275;51.716;14.324;2023-04-25T07:11:37;6.13;;;2.78;;
27939;SDS011;15275;51.716;14.324;2023-04-25T07:14:04;5.95;;;2.35;;
27939;SDS011;15275;51.716;14.324;2023-04-25T07:16:30;3.53;;;2.35;;
27939;SDS011;15275;51.716;14.324;2023-04-25T07:18:55;4.30;;;1.98;;
27939;SDS011;15275;51.716;14.324;2023-04-25T07:21:21;5.78;;;2.30;;
27939;SDS011;15275;51.716;14.324;2023-04-25T07:23:47;5.95;;;2.20;;
27939;SDS011;15275;51.716;14.324;2023-04-25T07:26:13;5.43;;;2.13;;
27939;SDS011;15275;51.716;14.324;2023-04-25T07:28:39;9.00;;;2.38;;
27939;SDS011;15275;51.716;14.324;2023-04-25T07:31:05;7.57;;;2.40;;
27939;SDS011;15275;51.716;14.324;2023-04-25T07:33:31;8.43;;;2.50;;
27939;SDS011;15275;51.716;14.324;2023-04-25T07:35:58;7.22;;;2.20;;
27939;SDS011;15275;51.716;14.324;2023-04-25T07:38:24;4.57;;;2.08;;
27939;SDS011;15275;51.716;14.324;2023-04-25T07:40:50;3.85;;;1.85;;
27939;SDS011;15275;51.716;14.324;2023-04-25T07:43:16;5.35;;;2.08;;
27939;SDS011;15275;51.716;14.324;2023-04-25T07:45:43;8.80;;;1.90;;
27939;SDS011;15275;51.716;14.324;2023-04-25T07:48:09;4.40;;;1.95;;
27939;SDS011;15275;51.716;14.324;2023-04-25T07:50:35;15.15;;;2.38;;
27939;SDS011;15275;51.716;14.324;2023-04-25T07:53:01;4.25;;;1.88;;
27939;SDS011;15275;51.716;14.324;2023-04-25T07:55:27;4.70;;;2.30;;
27939;SDS011;15275;51.716;14.324;2023-04-25T07:57:53;4.63;;;1.90;;
27939;SDS011;15275;51.716;14.324;2023-04-25T08:00:19;3.10;;;1.90;;
27939;SDS011;15275;51.716;14.324;2023-04-25T08:02:45;9.63;;;2.28;;
27939;SDS011;15275;51.716;14.324;2023-04-25T08:05:11;3.60;;;2.13;;
27939;SDS011;15275;51.716;14.324;2023-04-25T08:07:39;3.35;;;1.83;;
27939;SDS011;15275;51.716;14.324;2023-04-25T08:10:06;4.78;;;2.42;;
27939;SDS011;15275;51.716;14.324;2023-04-25T08:12:33;4.53;;;2.15;;
27939;SDS011;15275;51.716;14.324;2023-04-25T08:14:59;5.18;;;2.00;;
27939;SDS011;15275;51.716;14.324;2023-04-25T08:17:25;2.55;;;1.70;;
27939;SDS011;15275;51.716;14.324;2023-04-25T08:19:51;2.75;;;1.67;;
27939;SDS011;15275;51.716;14.324;2023-04-25T08:22:17;4.00;;;1.90;;
27939;SDS011;15275;51.716;14.324;2023-04-25T08:24:42;7.32;;;2.00;;
27939;SDS011;15275;51.716;14.324;2023-04-25T08:27:08;3.80;;;1.80;;
27939;SDS011;15275;51.716;14.324;2023-04-25T08:29:34;5.93;;;1.90;;
27939;SDS011;15275;51.716;14.324;2023-04-25T08:32:00;3.38;;;1.70;;
27939;SDS011;15275;51.716;14.324;2023-04-25T08:34:26;5.10;;;1.85;;
27939;SDS011;15275;51.716;14.324;2023-04-25T08:36:52;3.22;;;2.10;;
27939;SDS011;15275;51.716;14.324;2023-04-25T08:39:18;5.10;;;1.63;;
27939;SDS011;15275;51.716;14.324;2023-04-25T08:41:44;3.38;;;1.85;;
27939;SDS011;15275;51.716;14.324;2023-04-25T08:44:10;5.70;;;1.80;;
27939;SDS011;15275;51.716;14.324;2023-04-25T08:46:40;5.18;;;2.10;;
27939;SDS011;15275;51.716;14.324;2023-04-25T08:49:06;6.75;;;1.95;;
27939;SDS011;15275;51.716;14.324;2023-04-25T08:51:40;4.60;;;1.45;;
27939;SDS011;15275;51.716;14.324;2023-04-25T08:54:12;4.70;;;1.90;;
27939;SDS011;15275;51.716;14.324;2023-04-25T08:56:48;1.73;;;1.42;;
27939;SDS011;15275;51.716;14.324;2023-04-25T08:59:14;3.10;;;1.65;;
27939;SDS011;15275;51.716;14.324;2023-04-25T09:01:42;2.17;;;1.52;;
27939;SDS011;15275;51.716;14.324;2023-04-25T09:04:08;2.10;;;1.60;;
27939;SDS011;15275;51.716;14.324;2023-04-25T09:06:34;6.32;;;1.92;;
27939;SDS011;15275;51.716;14.324;2023-04-25T09:09:02;1.92;;;1.33;;
27939;SDS011;15275;51.716;14.324;2023-04-25T09:11:30;4.25;;;1.80;;
27939;SDS011;15275;51.716;14.324;2023-04-25T09:14:17;7.22;;;2.17;;
27939;SDS011;15275;51.716;14.324;2023-04-25T09:19:30;4.15;;;2.22;;
27939;SDS011;15275;51.716;14.324;2023-04-25T09:22:01;4.82;;;2.30;;
27939;SDS011;15275;51.716;14.324;2023-04-25T09:26:58;4.72;;;2.78;;
27939;SDS011;15275;51.716;14.324;2023-04-25T09:29:33;10.30;;;2.20;;
27939;SDS011;15275;51.716;14.324;2023-04-25T09:32:18;4.72;;;2.25;;
27939;SDS011;15275;51.716;14.324;2023-04-25T09:34:47;4.45;;;2.05;;
27939;SDS011;15275;51.716;14.324;2023-04-25T09:37:25;3.33;;;1.60;;
27939;SDS011;15275;51.716;14.324;2023-04-25T09:39:56;4.10;;;1.80;;
27939;SDS011;15275;51.716;14.324;2023-04-25T09:42:30;2.67;;;1.55;;
27939;SDS011;15275;51.716;14.324;2023-04-25T09:44:57;2.15;;;1.70;;
27939;SDS011;15275;51.716;14.324;2023-04-25T09:47:25;2.20;;;1.60;;
27939;SDS011;15275;51.716;14.324;2023-04-25T09:49:53;3.67;;;1.75;;
27939;SDS011;15275;51.716;14.324;2023-04-25T09:52:21;4.45;;;1.80;;
27939;SDS011;15275;51.716;14.324;2023-04-25T09:54:49;4.45;;;2.20;;
27939;SDS011;15275;51.716;14.324;2023-04-25T09:57:20;6.55;;;1.92;;
27939;SDS011;15275;51.716;14.324;2023-04-25T09:59:50;3.10;;;2.10;;
27939;SDS011;15275;51.716;14.324;2023-04-25T10:02:19;5.85;;;2.20;;
27939;SDS011;15275;51.716;14.324;2023-04-25T10:04:51;5.38;;;2.47;;
27939;SDS011;15275;51.716;14.324;2023-04-25T10:07:20;5.78;;;2.40;;
27939;SDS011;15275;51.716;14.324;2023-04-25T10:10:02;5.63;;;2.40;;
27939;SDS011;15275;51.716;14.324;2023-04-25T10:12:31;3.15;;;2.30;;
27939;SDS011;15275;51.716;14.324;2023-04-25T10:14:58;3.67;;;2.53;;
27939;SDS011;15275;51.716;14.324;2023-04-25T10:17:28;6.53;;;3.20;;
27939;SDS011;15275;51.716;14.324;2023-04-25T10:19:54;3.47;;;2.58;;
27939;SDS011;15275;51.716;14.324;2023-04-25T10:25:03;6.25;;;2.65;;
27939;SDS011;15275;51.716;14.324;2023-04-25T10:27:33;7.78;;;2.50;;
27939;SDS011;15275;51.716;14.324;2023-04-25T10:30:04;4.18;;;3.05;;
27939;SDS011;15275;51.716;14.324;2023-04-25T10:32:37;3.90;;;2.38;;
27939;SDS011;15275;51.716;14.324;2023-04-25T10:35:19;6.57;;;2.47;;
27939;SDS011;15275;51.716;14.324;2023-04-25T10:37:58;4.25;;;2.42;;
27939;SDS011;15275;51.716;14.324;2023-04-25T10:40:24;3.28;;;2.33;;
27939;SDS011;15275;51.716;14.324;2023-04-25T10:42:53;2.38;;;1.40;;
27939;SDS011;15275;51.716;14.324;2023-04-25T10:45:21;1.15;;;0.90;;
27939;SDS011;15275;51.716;14.324;2023-04-25T10:47:47;5.18;;;1.33;;
27939;SDS011;15275;51.716;14.324;2023-04-25T10:50:16;1.30;;;1.00;;
27939;SDS011;15275;51.716;14.324;2023-04-25T10:52:42;1.33;;;0.70;;
27939;SDS011;15275;51.716;14.324;2023-04-25T10:55:09;0.73;;;0.70;;
27939;SDS011;15275;51.716;14.324;2023-04-25T11:02:55;1.80;;;0.93;;
27939;SDS011;15275;51.716;14.324;2023-04-25T11:05:34;1.58;;;0.90;;
27939;SDS011;15275;51.716;14.324;2023-04-25T11:08:01;2.70;;;1.83;;
27939;SDS011;15275;51.716;14.324;2023-04-25T11:10:32;2.80;;;1.60;;
27939;SDS011;15275;51.716;14.324;2023-04-25T11:13:01;2.03;;;1.50;;
27939;SDS011;15275;51.716;14.324;2023-04-25T11:15:27;2.20;;;1.58;;
27939;SDS011;15275;51.716;14.324;2023-04-25T11:17:54;1.92;;;1.33;;
27939;SDS011;15275;51.716;14.324;2023-04-25T11:20:20;1.80;;;1.35;;
27939;SDS011;15275;51.716;14.324;2023-04-25T11:22:47;1.73;;;1.30;;
27939;SDS011;15275;51.716;14.324;2023-04-25T11:25:14;2.63;;;1.50;;
27939;SDS011;15275;51.716;14.324;2023-04-25T11:30:25;3.08;;;1.65;;
27939;SDS011;15275;51.716;14.324;2023-04-25T11:32:52;16.35;;;3.00;;
27939;SDS011;15275;51.716;14.324;2023-04-25T11:35:19;2.17;;;1.42;;
27939;SDS011;15275;51.716;14.324;2023-04-25T11:37:47;2.38;;;1.42;;
27939;SDS011;15275;51.716;14.324;2023-04-25T11:40:14;4.30;;;1.33;;
27939;SDS011;15275;51.716;14.324;2023-04-25T11:42:44;4.68;;;1.75;;
27939;SDS011;15275;51.716;14.324;2023-04-25T11:45:12;4.13;;;1.48;;
27939;SDS011;15275;51.716;14.324;2023-04-25T11:47:39;3.33;;;1.83;;
27939;SDS011;15275;51.716;14.324;2023-04-25T11:50:06;3.47;;;1.58;;
27939;SDS011;15275;51.716;14.324;2023-04-25T11:52:37;5.07;;;1.60;;
27939;SDS011;15275;51.716;14.324;2023-04-25T11:55:19;3.08;;;1.60;;
27939;SDS011;15275;51.716;14.324;2023-04-25T11:57:46;4.22;;;1.67;;
27939;SDS011;15275;51.716;14.324;2023-04-25T12:00:19;4.63;;;1.67;;
27939;SDS011;15275;51.716;14.324;2023-04-25T12:02:47;7.30;;;2.25;;
27939;SDS011;15275;51.716;14.324;2023-04-25T12:05:20;9.15;;;2.05;;
27939;SDS011;15275;51.716;14.324;2023-04-25T12:07:50;6.30;;;1.88;;
27939;SDS011;15275;51.716;14.324;2023-04-25T12:10:16;6.82;;;1.77;;
27939;SDS011;15275;51.716;14.324;2023-04-25T12:12:44;6.95;;;1.75;;
27939;SDS011;15275;51.716;14.324;2023-04-25T12:17:44;4.07;;;2.17;;
27939;SDS011;15275;51.716;14.324;2023-04-25T12:20:15;6.30;;;2.15;;
27939;SDS011;15275;51.716;14.324;2023-04-25T12:22:45;7.13;;;2.30;;
27939;SDS011;15275;51.716;14.324;2023-04-25T12:28:16;4.47;;;1.90;;
27939;SDS011;15275;51.716;14.324;2023-04-25T12:30:59;6.60;;;1.92;;
27939;SDS011;15275;51.716;14.324;2023-04-25T12:33:32;9.98;;;2.72;;
27939;SDS011;15275;51.716;14.324;2023-04-25T12:36:00;9.32;;;2.42;;
27939;SDS011;15275;51.716;14.324;2023-04-25T12:38:35;6.90;;;1.45;;
27939;SDS011;15275;51.716;14.324;2023-04-25T12:41:03;6.05;;;1.67;;
27939;SDS011;15275;51.716;14.324;2023-04-25T12:43:29;12.65;;;3.05;;
27939;SDS011;15275;51.716;14.324;2023-04-25T12:45:55;9.27;;;1.95;;
27939;SDS011;15275;51.716;14.324;2023-04-25T12:48:22;6.47;;;2.58;;
27939;SDS011;15275;51.716;14.324;2023-04-25T12:50:49;16.83;;;3.35;;
27939;SDS011;15275;51.716;14.324;2023-04-25T12:53:16;6.57;;;2.60;;
27939;SDS011;15275;51.716;14.324;2023-04-25T12:55:44;12.18;;;2.10;;
27939;SDS011;15275;51.716;14.324;2023-04-25T12:58:12;7.53;;;1.83;;
27939;SDS011;15275;51.716;14.324;2023-04-25T13:00:42;12.20;;;2.15;;
27939;SDS011;15275;51.716;14.324;2023-04-25T13:03:09;9.32;;;1.98;;
27939;SDS011;15275;51.716;14.324;2023-04-25T13:05:38;8.05;;;2.47;;
27939;SDS011;15275;51.716;14.324;2023-04-25T13:08:05;11.65;;;2.63;;
27939;SDS011;15275;51.716;14.324;2023-04-25T13:10:31;5.40;;;2.00;;
27939;SDS011;15275;51.716;14.324;2023-04-25T13:12:58;11.23;;;2.78;;
27939;SDS011;15275;51.716;14.324;2023-04-25T13:15:26;7.88;;;2.10;;
27939;SDS011;15275;51.716;14.324;2023-04-25T13:17:52;6.90;;;1.90;;
27939;SDS011;15275;51.716;14.324;2023-04-25T13:20:18;5.60;;;1.98;;
27939;SDS011;15275;51.716;14.324;2023-04-25T13:22:47;4.72;;;1.52;;
27939;SDS011;15275;51.716;14.324;2023-04-25T13:25:13;5.43;;;1.92;;
27939;SDS011;15275;51.716;14.324;2023-04-25T13:27:39;5.60;;;1.77;;
27939;SDS011;15275;51.716;14.324;2023-04-25T13:30:06;8.10;;;2.22;;
27939;SDS011;15275;51.716;14.324;2023-04-25T13:32:34;4.45;;;1.50;;
27939;SDS011;15275;51.716;14.324;2023-04-25T13:35:04;5.07;;;1.50;;
27939;SDS011;15275;51.716;14.324;2023-04-25T13:37:35;5.30;;;1.73;;
27939;SDS011;15275;51.716;14.324;2023-04-25T13:40:02;3.30;;;1.73;;
27939;SDS011;15275;51.716;14.324;2023-04-25T13:42:31;6.55;;;1.83;;
27939;SDS011;15275;51.716;14.324;2023-04-25T13:44:57;9.77;;;2.30;;
27939;SDS011;15275;51.716;14.324;2023-04-25T13:47:23;9.57;;;2.10;;
27939;SDS011;15275;51.716;14.324;2023-04-25T13:49:51;4.68;;;2.25;;
27939;SDS011;15275;51.716;14.324;2023-04-25T13:52:17;4.32;;;1.70;;
27939;SDS011;15275;51.716;14.324;2023-04-25T13:54:43;9.13;;;2.10;;
27939;SDS011;15275;51.716;14.324;2023-04-25T13:57:09;9.65;;;2.42;;
27939;SDS011;15275;51.716;14.324;2023-04-25T13:59:36;6.35;;;1.90;;
27939;SDS011;15275;51.716;14.324;2023-04-25T14:02:02;6.15;;;1.65;;
27939;SDS011;15275;51.716;14.324;2023-04-25T14:04:28;7.60;;;2.05;;
27939;SDS011;15275;51.716;14.324;2023-04-25T14:06:55;13.38;;;2.80;;
27939;SDS011;15275;51.716;14.324;2023-04-25T14:09:21;11.60;;;3.40;;
27939;SDS011;15275;51.716;14.324;2023-04-25T14:11:53;5.78;;;2.22;;
27939;SDS011;15275;51.716;14.324;2023-04-25T14:14:20;7.72;;;2.20;;
27939;SDS011;15275;51.716;14.324;2023-04-25T14:16:47;6.97;;;2.03;;
27939;SDS011;15275;51.716;14.324;2023-04-25T14:19:14;6.53;;;2.15;;
27939;SDS011;15275;51.716;14.324;2023-04-25T14:21:40;5.18;;;2.00;;
27939;SDS011;15275;51.716;14.324;2023-04-25T14:24:06;7.22;;;1.75;;
27939;SDS011;15275;51.716;14.324;2023-04-25T14:26:33;9.45;;;1.95;;
27939;SDS011;15275;51.716;14.324;2023-04-25T14:29:05;4.82;;;1.60;;
27939;SDS011;15275;51.716;14.324;2023-04-25T14:31:32;4.65;;;1.90;;
27939;SDS011;15275;51.716;14.324;2023-04-25T14:33:58;7.60;;;1.80;;
27939;SDS011;15275;51.716;14.324;2023-04-25T14:36:24;11.27;;;2.88;;
27939;SDS011;15275;51.716;14.324;2023-04-25T14:38:51;5.15;;;1.77;;
27939;SDS011;15275;51.716;14.324;2023-04-25T14:41:17;6.85;;;1.98;;
27939;SDS011;15275;51.716;14.324;2023-04-25T14:43:43;3.97;;;2.05;;
27939;SDS011;15275;51.716;14.324;2023-04-25T14:46:10;6.55;;;1.95;;
27939;SDS011;15275;51.716;14.324;2023-04-25T14:48:36;12.98;;;2.38;;
27939;SDS011;15275;51.716;14.324;2023-04-25T14:51:02;7.63;;;2.08;;
27939;SDS011;15275;51.716;14.324;2023-04-25T14:53:29;6.93;;;2.05;;
27939;SDS011;15275;51.716;14.324;2023-04-25T14:55:56;4.50;;;2.00;;
27939;SDS011;15275;51.716;14.324;2023-04-25T14:58:22;5.68;;;1.50;;